createdAt,value
2022-11-30T00:01:11.940Z,22.90
2022-11-30T00:03:38.964Z,21.97
2022-11-30T00:06:07.739Z,23.80
2022-11-30T00:08:35.461Z,22.20
2022-11-30T00:11:14.751Z,25.30
2022-11-30T00:13:42.135Z,22.63
2022-11-30T00:16:09.918Z,25.43
2022-11-30T00:18:37.634Z,22.43
2022-11-30T00:21:08.985Z,24.23
2022-11-30T00:23:41.439Z,23.47
2022-11-30T00:26:11.626Z,23.03
2022-11-30T00:28:39.306Z,23.53
2022-11-30T00:31:11.522Z,23.47
2022-11-30T00:33:39.242Z,23.57
2022-11-30T00:36:13.026Z,22.87
2022-11-30T00:38:40.281Z,24.50
2022-11-30T00:41:07.443Z,24.57
2022-11-30T00:43:34.675Z,24.90
2022-11-30T00:46:02.175Z,25.57
2022-11-30T00:48:29.127Z,23.97
2022-11-30T00:50:55.926Z,25.93
2022-11-30T00:53:23.002Z,25.40
2022-11-30T00:55:50.327Z,25.70
2022-11-30T00:58:17.304Z,25.60
2022-11-30T01:00:44.108Z,26.23
2022-11-30T01:03:11.345Z,26.33
2022-11-30T01:05:38.988Z,26.50
2022-11-30T01:08:08.462Z,26.33
2022-11-30T01:10:38.277Z,25.37
2022-11-30T01:13:05.924Z,25.30
2022-11-30T01:15:38.309Z,25.67
2022-11-30T01:18:06.123Z,25.17
2022-11-30T01:20:32.957Z,26.37
2022-11-30T01:22:59.996Z,26.73
2022-11-30T01:25:26.886Z,26.07
2022-11-30T01:27:53.576Z,26.73
2022-11-30T01:30:20.839Z,25.03
2022-11-30T01:32:47.556Z,24.87
2022-11-30T01:35:15.107Z,24.63
2022-11-30T01:37:41.855Z,26.10
2022-11-30T01:40:11.645Z,26.10
2022-11-30T01:42:38.535Z,25.60
2022-11-30T01:45:07.377Z,25.43
2022-11-30T01:47:44.258Z,25.87
2022-11-30T01:50:15.205Z,25.63
2022-11-30T01:52:46.990Z,25.30
2022-11-30T01:55:21.028Z,25.80
2022-11-30T01:58:02.091Z,25.23
2022-11-30T02:00:29.361Z,25.80
2022-11-30T02:03:33.505Z,27.33
2022-11-30T02:06:00.937Z,26.00
2022-11-30T02:08:29.387Z,26.57
2022-11-30T02:11:00.536Z,26.20
2022-11-30T02:13:41.946Z,26.13
2022-11-30T02:16:29.725Z,25.10
2022-11-30T02:19:14.687Z,26.90
2022-11-30T02:21:50.172Z,26.27
2022-11-30T02:24:28.040Z,26.67
2022-11-30T02:27:07.611Z,26.73
2022-11-30T02:29:53.820Z,28.83
2022-11-30T02:32:29.556Z,25.90
2022-11-30T02:34:58.677Z,27.33
2022-11-30T02:37:28.022Z,27.27
2022-11-30T02:39:55.147Z,27.90
2022-11-30T02:42:22.676Z,26.87
2022-11-30T02:44:52.910Z,28.23
2022-11-30T02:47:38.674Z,27.87
2022-11-30T02:50:17.548Z,27.87
2022-11-30T02:52:45.809Z,29.30
2022-11-30T02:55:17.639Z,27.90
2022-11-30T02:57:44.784Z,29.63
2022-11-30T03:00:15.083Z,28.27
2022-11-30T03:02:42.562Z,27.47
2022-11-30T03:05:09.619Z,28.30
2022-11-30T03:07:36.877Z,29.20
2022-11-30T03:10:05.406Z,27.00
2022-11-30T03:12:32.177Z,27.63
2022-11-30T03:14:58.914Z,27.20
2022-11-30T03:17:25.813Z,26.60
2022-11-30T03:19:53.344Z,29.23
2022-11-30T03:22:20.472Z,27.90
2022-11-30T03:24:47.567Z,29.17
2022-11-30T03:27:15.002Z,28.70
2022-11-30T03:29:41.893Z,27.87
2022-11-30T03:32:08.727Z,27.90
2022-11-30T03:34:35.479Z,28.93
2022-11-30T03:37:02.309Z,29.53
2022-11-30T03:39:28.992Z,27.33
2022-11-30T03:41:56.240Z,27.53
2022-11-30T03:44:23.609Z,26.80
2022-11-30T03:46:50.416Z,26.90
2022-11-30T03:49:17.187Z,27.80
2022-11-30T03:51:43.885Z,27.70
2022-11-30T03:54:10.969Z,28.00
2022-11-30T03:56:38.534Z,27.23
2022-11-30T03:59:05.213Z,27.60
2022-11-30T04:01:31.997Z,28.40
2022-11-30T04:03:58.937Z,27.33
2022-11-30T04:06:26.330Z,27.53
2022-11-30T04:08:53.963Z,29.43
2022-11-30T04:11:20.661Z,25.90
2022-11-30T04:13:47.447Z,28.37
2022-11-30T04:16:14.255Z,27.50
2022-11-30T04:18:41.406Z,27.63
2022-11-30T04:21:09.053Z,28.93
2022-11-30T04:23:39.189Z,28.37
2022-11-30T04:26:08.785Z,28.00
2022-11-30T04:28:35.955Z,28.57
2022-11-30T04:31:03.327Z,29.20
2022-11-30T04:33:30.530Z,28.67
2022-11-30T04:36:01.400Z,27.53
2022-11-30T04:38:29.624Z,27.83
2022-11-30T04:40:56.606Z,28.70
2022-11-30T04:43:25.028Z,29.73
2022-11-30T04:45:52.687Z,30.67
2022-11-30T04:48:20.287Z,29.13
2022-11-30T04:50:46.988Z,30.33
2022-11-30T04:53:13.665Z,30.27
2022-11-30T04:55:40.630Z,28.93
2022-11-30T04:58:07.897Z,29.67
2022-11-30T05:00:35.818Z,31.57
2022-11-30T05:03:02.565Z,30.47
2022-11-30T05:05:29.408Z,29.00
2022-11-30T05:07:58.072Z,32.77
2022-11-30T05:10:25.757Z,32.73
2022-11-30T05:12:53.009Z,31.47
2022-11-30T05:15:20.474Z,30.97
2022-11-30T05:17:47.170Z,33.73
2022-11-30T05:20:14.158Z,31.77
2022-11-30T05:22:40.940Z,31.33
2022-11-30T05:25:08.647Z,30.73
2022-11-30T05:27:35.953Z,30.33
2022-11-30T05:30:03.292Z,30.33
2022-11-30T05:32:29.968Z,31.40
2022-11-30T05:34:57.510Z,30.90
2022-11-30T05:37:24.746Z,29.67
2022-11-30T05:39:51.446Z,32.00
2022-11-30T05:42:18.169Z,30.53
2022-11-30T05:44:45.402Z,30.73
2022-11-30T05:47:12.714Z,30.40
2022-11-30T05:49:39.783Z,30.87
2022-11-30T05:52:06.570Z,27.87
2022-11-30T05:54:34.468Z,30.40
2022-11-30T05:57:01.401Z,30.40
2022-11-30T05:59:28.702Z,29.40
2022-11-30T06:01:55.547Z,28.83
2022-11-30T06:04:23.528Z,30.40
2022-11-30T06:06:52.277Z,30.00
2022-11-30T06:09:18.980Z,28.43
2022-11-30T06:11:46.092Z,31.07
2022-11-30T06:14:12.891Z,30.00
2022-11-30T06:16:40.180Z,28.87
2022-11-30T06:19:07.448Z,30.93
2022-11-30T06:21:34.350Z,30.47
2022-11-30T06:24:01.353Z,28.73
2022-11-30T06:26:28.405Z,30.23
2022-11-30T06:28:55.263Z,29.70
2022-11-30T06:31:22.025Z,30.00
2022-11-30T06:33:48.937Z,28.47
2022-11-30T06:36:22.781Z,29.00
2022-11-30T06:38:51.102Z,28.87
2022-11-30T06:41:18.142Z,31.80
2022-11-30T06:43:44.879Z,31.00
2022-11-30T06:46:11.704Z,28.03
2022-11-30T06:48:39.313Z,27.97
2022-11-30T06:51:10.542Z,28.97
2022-11-30T06:53:37.780Z,28.63
2022-11-30T06:56:10.665Z,27.70
2022-11-30T06:58:42.012Z,28.33
2022-11-30T07:01:12.930Z,27.50
2022-11-30T07:03:41.771Z,28.67
2022-11-30T07:06:15.084Z,28.57
2022-11-30T07:08:43.328Z,27.53
2022-11-30T07:11:12.834Z,27.37
2022-11-30T07:13:40.745Z,28.07
2022-11-30T07:16:10.785Z,29.03
2022-11-30T07:18:37.641Z,29.37
2022-11-30T07:21:05.781Z,26.77
2022-11-30T07:23:56.310Z,28.50
2022-11-30T07:26:24.993Z,28.27
2022-11-30T07:28:55.700Z,24.93
2022-11-30T07:31:31.055Z,26.80
2022-11-30T07:33:59.448Z,27.40
2022-11-30T07:36:27.296Z,25.40
2022-11-30T07:38:54.865Z,27.00
2022-11-30T07:41:22.077Z,27.17
2022-11-30T07:43:48.758Z,25.27
2022-11-30T07:46:16.997Z,25.30
2022-11-30T07:48:45.154Z,26.03
2022-11-30T07:51:20.658Z,26.47
2022-11-30T07:53:48.319Z,27.77
2022-11-30T07:56:17.357Z,26.53
2022-11-30T07:58:44.765Z,26.13
2022-11-30T08:01:21.611Z,25.80
2022-11-30T08:03:50.406Z,25.47
2022-11-30T08:06:22.429Z,24.37
2022-11-30T08:08:51.900Z,28.20
2022-11-30T08:11:21.909Z,26.73
2022-11-30T08:13:48.670Z,28.87
2022-11-30T08:16:18.543Z,28.90
2022-11-30T08:18:45.737Z,29.17
2022-11-30T08:21:15.031Z,27.33
2022-11-30T08:23:44.423Z,26.57
2022-11-30T08:26:15.014Z,24.17
2022-11-30T08:28:43.202Z,26.77
2022-11-30T08:31:13.985Z,25.43
2022-11-30T08:33:42.361Z,26.13
2022-11-30T08:36:15.148Z,26.80
2022-11-30T08:38:44.011Z,29.07
2022-11-30T08:41:14.043Z,27.50
2022-11-30T08:43:42.051Z,27.00
2022-11-30T08:54:39.135Z,26.93
2022-11-30T08:57:05.882Z,26.60
2022-11-30T08:59:32.777Z,26.90
2022-11-30T09:01:59.681Z,26.93
2022-11-30T09:04:27.466Z,25.10
2022-11-30T09:06:59.537Z,27.67
2022-11-30T09:09:27.324Z,26.43
2022-11-30T09:11:54.122Z,26.57
2022-11-30T09:14:20.945Z,25.43
2022-11-30T09:16:47.864Z,24.93
2022-11-30T09:19:14.658Z,24.70
2022-11-30T09:21:45.444Z,25.10
2022-11-30T09:24:16.665Z,25.33
2022-11-30T09:26:43.503Z,23.43
2022-11-30T09:29:10.941Z,23.57
2022-11-30T09:31:37.887Z,25.20
2022-11-30T09:34:04.665Z,23.07
2022-11-30T09:36:33.092Z,23.67
2022-11-30T09:38:59.830Z,25.50
2022-11-30T09:42:07.044Z,22.10
2022-11-30T09:44:51.752Z,22.90
2022-11-30T09:47:31.908Z,21.80
2022-11-30T09:50:05.091Z,22.27
2022-11-30T09:52:31.750Z,19.70
2022-11-30T09:55:06.594Z,22.13
2022-11-30T09:57:49.841Z,20.87
2022-11-30T10:00:19.401Z,21.10
2022-11-30T10:02:46.932Z,22.27
2022-11-30T10:05:27.628Z,20.17
2022-11-30T10:08:06.782Z,22.50
2022-11-30T10:11:09.234Z,22.23
2022-11-30T10:14:00.108Z,22.47
2022-11-30T10:16:33.379Z,22.47
2022-11-30T10:19:13.221Z,23.73
2022-11-30T10:22:04.589Z,23.13
2022-11-30T10:24:47.307Z,24.57
2022-11-30T10:27:49.871Z,24.73
2022-11-30T10:30:33.522Z,22.90
2022-11-30T10:33:05.868Z,24.63
2022-11-30T10:35:49.613Z,24.90
2022-11-30T10:38:28.768Z,24.07
2022-11-30T10:41:11.777Z,22.97
2022-11-30T10:44:15.268Z,24.83
2022-11-30T10:47:17.585Z,24.20
2022-11-30T10:49:52.774Z,28.03
2022-11-30T10:52:28.714Z,26.00
2022-11-30T10:55:03.681Z,25.70
2022-11-30T10:57:32.443Z,23.07
2022-11-30T11:00:02.592Z,22.80
2022-11-30T11:02:47.992Z,23.37
2022-11-30T11:05:20.136Z,23.60
2022-11-30T11:08:06.792Z,23.73
2022-11-30T11:10:43.402Z,24.37
2022-11-30T11:13:41.819Z,22.23
2022-11-30T11:16:12.069Z,24.33
2022-11-30T11:19:22.413Z,26.27
2022-11-30T11:21:50.470Z,27.00
2022-11-30T11:24:20.028Z,26.27
2022-11-30T11:26:52.129Z,26.43
2022-11-30T11:29:35.450Z,25.00
2022-11-30T11:32:27.430Z,24.67
2022-11-30T11:34:54.254Z,23.40
2022-11-30T11:37:22.544Z,22.93
2022-11-30T11:40:00.872Z,23.93
2022-11-30T11:42:31.424Z,23.00
2022-11-30T11:45:01.073Z,24.07
2022-11-30T11:47:37.921Z,23.03
2022-11-30T11:51:04.329Z,25.03
2022-11-30T11:53:15.239Z,23.53
2022-11-30T11:55:43.728Z,25.47
2022-11-30T11:58:17.478Z,27.73
2022-11-30T12:00:46.208Z,23.50
2022-11-30T12:03:36.828Z,22.23
2022-11-30T12:06:12.621Z,22.43
2022-11-30T12:09:03.434Z,22.00
2022-11-30T12:11:46.399Z,21.27
2022-11-30T12:14:16.986Z,23.77
2022-11-30T12:17:09.628Z,24.73
2022-11-30T12:19:55.090Z,23.07
2022-11-30T12:22:44.826Z,24.40
2022-11-30T12:25:29.093Z,25.07
2022-11-30T12:28:06.419Z,24.30
2022-11-30T12:30:45.633Z,24.47
2022-11-30T12:33:21.320Z,25.40
2022-11-30T12:36:13.025Z,25.90
2022-11-30T12:38:56.364Z,24.30
2022-11-30T12:41:31.997Z,23.83
2022-11-30T12:44:21.017Z,24.80
2022-11-30T12:47:03.889Z,23.80
2022-11-30T12:49:38.361Z,24.73
2022-11-30T12:52:48.416Z,23.20
2022-11-30T12:55:37.668Z,25.43
2022-11-30T12:58:25.792Z,26.83
2022-11-30T13:00:59.989Z,25.63
2022-11-30T13:03:52.937Z,25.37
2022-11-30T13:06:46.984Z,25.87
2022-11-30T13:09:25.132Z,24.40
2022-11-30T13:11:56.609Z,24.67
2022-11-30T13:14:26.673Z,23.30
2022-11-30T13:17:04.164Z,23.90
2022-11-30T13:19:50.189Z,23.03
2022-11-30T13:22:21.366Z,24.53
2022-11-30T13:25:00.556Z,23.27
2022-11-30T13:27:35.146Z,22.90
2022-11-30T13:30:25.781Z,23.30
2022-11-30T13:32:59.554Z,22.97
2022-11-30T13:35:30.112Z,21.63
2022-11-30T13:40:55.362Z,22.73
2022-11-30T13:43:23.621Z,22.27
2022-11-30T13:46:03.455Z,23.03
2022-11-30T13:48:37.096Z,22.87
2022-11-30T13:51:04.481Z,23.47
2022-11-30T13:53:36.257Z,24.47
2022-11-30T13:56:34.218Z,25.73
2022-11-30T13:59:23.246Z,25.70
2022-11-30T14:04:45.989Z,23.53
2022-11-30T14:07:38.380Z,24.53
2022-11-30T14:10:33.411Z,24.20
2022-11-30T14:13:09.843Z,23.97
2022-11-30T14:15:39.347Z,26.33
2022-11-30T14:18:09.154Z,22.50
2022-11-30T14:21:00.500Z,26.00
2022-11-30T14:23:39.455Z,24.57
2022-11-30T14:26:11.395Z,24.87
2022-11-30T14:28:57.426Z,24.67
2022-11-30T14:31:31.869Z,24.70
2022-11-30T14:34:20.917Z,23.80
2022-11-30T14:36:52.892Z,24.50
2022-11-30T14:39:33.152Z,23.10
2022-11-30T14:42:02.955Z,23.93
2022-11-30T14:44:41.044Z,22.43
2022-11-30T14:47:37.306Z,20.50
2022-11-30T14:50:06.194Z,22.83
2022-11-30T14:52:57.820Z,22.97
2022-11-30T14:55:27.297Z,22.63
2022-11-30T14:58:05.586Z,22.47
2022-11-30T15:00:38.788Z,23.67
2022-11-30T15:03:16.129Z,22.93
2022-11-30T15:05:44.556Z,23.07
2022-11-30T15:08:17.034Z,22.40
2022-11-30T15:10:44.685Z,25.37
2022-11-30T15:13:15.885Z,22.37
2022-11-30T15:15:56.076Z,21.80
2022-11-30T15:18:25.435Z,23.77
2022-11-30T15:20:57.674Z,23.27
2022-11-30T15:23:24.445Z,22.97
2022-11-30T15:25:57.665Z,23.13
2022-11-30T15:28:34.224Z,22.73
2022-11-30T15:31:04.884Z,22.10
2022-11-30T15:33:42.004Z,22.23
2022-11-30T15:36:31.859Z,23.17
2022-11-30T15:38:57.711Z,22.50
2022-11-30T15:41:25.749Z,22.90
2022-11-30T15:43:55.395Z,22.20
2022-11-30T15:46:32.478Z,23.53
2022-11-30T15:49:32.358Z,22.97
2022-11-30T15:52:20.109Z,22.77
2022-11-30T15:54:58.905Z,22.07
2022-11-30T15:57:28.081Z,23.57
2022-11-30T16:00:15.105Z,23.73
2022-11-30T16:02:41.915Z,22.97
2022-11-30T16:05:19.806Z,21.67
2022-11-30T16:08:03.781Z,23.63
2022-11-30T16:10:36.378Z,23.30
2022-11-30T16:13:04.237Z,23.23
2022-11-30T16:15:37.934Z,22.47
2022-11-30T16:18:07.808Z,24.40
2022-11-30T16:20:35.158Z,22.93
2022-11-30T16:23:05.735Z,23.80
2022-11-30T16:25:32.994Z,24.00
2022-11-30T16:28:00.674Z,23.53
2022-11-30T16:30:30.724Z,22.90
2022-11-30T16:32:57.483Z,24.50
2022-11-30T16:35:36.592Z,23.80
2022-11-30T16:38:04.333Z,22.77
2022-11-30T16:40:38.576Z,24.90
2022-11-30T16:43:06.588Z,24.07
2022-11-30T16:45:36.817Z,24.47
2022-11-30T16:48:04.697Z,23.90
2022-11-30T16:50:34.717Z,23.50
2022-11-30T16:53:02.599Z,23.37
2022-11-30T16:55:34.738Z,24.10
2022-11-30T16:58:02.076Z,24.37
2022-11-30T17:00:28.896Z,23.77
2022-11-30T17:03:00.974Z,24.23
2022-11-30T17:05:28.521Z,24.43
2022-11-30T17:07:55.556Z,24.80
2022-11-30T17:10:23.155Z,23.67
2022-11-30T17:12:49.966Z,24.43
2022-11-30T17:15:20.944Z,22.90
2022-11-30T17:17:47.946Z,23.97
2022-11-30T17:20:17.225Z,25.43
2022-11-30T17:22:44.385Z,25.33
2022-11-30T17:25:17.306Z,24.20
2022-11-30T17:27:44.617Z,25.10
2022-11-30T17:30:12.885Z,23.80
2022-11-30T17:32:39.739Z,27.77
2022-11-30T17:35:07.089Z,24.60
2022-11-30T17:37:33.853Z,25.50
2022-11-30T17:40:01.169Z,25.20
2022-11-30T17:42:28.954Z,22.50
2022-11-30T17:44:55.769Z,24.40
2022-11-30T17:47:22.548Z,24.87
2022-11-30T17:49:50.183Z,24.43
2022-11-30T17:52:17.662Z,24.00
2022-11-30T17:54:44.421Z,26.53
2022-11-30T17:57:11.242Z,27.60
2022-11-30T17:59:38.470Z,26.70
2022-11-30T18:02:05.439Z,25.70
2022-11-30T18:04:32.976Z,27.33
2022-11-30T18:06:59.690Z,25.77
2022-11-30T18:09:26.399Z,27.00
2022-11-30T18:11:53.502Z,26.30
2022-11-30T18:14:20.572Z,28.60
2022-11-30T18:16:48.190Z,25.70
2022-11-30T18:19:16.069Z,26.67
2022-11-30T18:21:46.781Z,29.00
2022-11-30T18:24:13.572Z,26.40
2022-11-30T18:26:40.594Z,25.17
2022-11-30T18:29:07.855Z,26.83
2022-11-30T18:31:36.540Z,28.10
2022-11-30T18:34:06.902Z,26.40
2022-11-30T18:36:35.412Z,26.40
2022-11-30T18:39:03.121Z,27.63
2022-11-30T18:41:30.502Z,27.00
2022-11-30T18:43:57.654Z,28.50
2022-11-30T18:46:25.041Z,40.33
2022-11-30T18:48:53.048Z,35.67
2022-11-30T18:51:22.941Z,32.93
2022-11-30T18:53:50.685Z,28.20
2022-11-30T18:56:19.635Z,26.83
2022-11-30T18:58:48.197Z,30.27
2022-11-30T19:01:20.878Z,26.20
2022-11-30T19:04:14.662Z,33.53
2022-11-30T19:06:42.837Z,27.77
2022-11-30T19:09:14.788Z,30.10
2022-11-30T19:11:42.826Z,30.83
2022-11-30T19:14:15.604Z,28.00
2022-11-30T19:16:43.251Z,30.53
2022-11-30T19:19:13.820Z,28.27
2022-11-30T19:21:43.355Z,28.17
2022-11-30T19:24:10.220Z,28.60
2022-11-30T19:26:40.057Z,28.53
2022-11-30T19:29:08.046Z,28.13
2022-11-30T19:31:34.900Z,27.37
2022-11-30T19:34:07.740Z,27.73
2022-11-30T19:36:37.925Z,28.63
2022-11-30T19:39:04.898Z,30.73
2022-11-30T19:41:32.657Z,29.37
2022-11-30T19:44:04.000Z,29.47
2022-11-30T19:46:33.769Z,27.80
2022-11-30T19:49:01.755Z,28.50
2022-11-30T19:51:30.722Z,28.00
2022-11-30T19:53:59.294Z,28.27
2022-11-30T19:56:27.239Z,28.90
2022-11-30T19:58:59.826Z,27.97
2022-11-30T20:01:30.745Z,27.43
2022-11-30T20:03:58.257Z,28.13
2022-11-30T20:06:28.582Z,27.80
2022-11-30T20:08:56.024Z,26.67
2022-11-30T20:11:23.603Z,27.70
2022-11-30T20:13:51.620Z,27.07
2022-11-30T20:16:21.625Z,28.30
2022-11-30T20:18:55.914Z,27.13
2022-11-30T20:21:28.263Z,26.57
2022-11-30T20:23:59.207Z,26.13
2022-11-30T20:26:34.243Z,25.67
2022-11-30T20:29:03.947Z,27.00
2022-11-30T20:31:34.187Z,26.60
2022-11-30T20:34:01.773Z,26.27
2022-11-30T20:36:28.576Z,26.33
2022-11-30T20:38:55.318Z,26.93
2022-11-30T20:41:24.688Z,27.67
2022-11-30T20:43:52.134Z,27.07
2022-11-30T20:46:28.535Z,26.97
2022-11-30T20:48:56.306Z,26.10
2022-11-30T20:51:32.988Z,27.17
2022-11-30T20:54:07.264Z,27.67
2022-11-30T20:56:36.935Z,27.97
2022-11-30T20:59:15.309Z,28.80
2022-11-30T21:01:44.644Z,30.47
2022-11-30T21:04:11.771Z,29.10
2022-11-30T21:06:38.832Z,27.47
2022-11-30T21:09:05.821Z,27.90
2022-11-30T21:11:33.338Z,27.63
2022-11-30T21:14:00.262Z,29.00
2022-11-30T21:16:29.435Z,26.77
2022-11-30T21:18:59.139Z,27.57
2022-11-30T21:21:30.464Z,26.20
2022-11-30T21:24:04.587Z,25.97
2022-11-30T21:26:37.339Z,25.77
2022-11-30T21:29:13.401Z,26.83
2022-11-30T21:31:40.615Z,28.13
2022-11-30T21:34:07.699Z,27.13
2022-11-30T21:36:35.190Z,26.13
2022-11-30T21:39:06.473Z,25.53
2022-11-30T21:41:39.411Z,26.60
2022-11-30T21:44:10.011Z,26.70
2022-11-30T21:46:37.518Z,26.90
2022-11-30T21:49:05.216Z,29.13
2022-11-30T21:51:32.848Z,29.73
2022-11-30T21:54:03.572Z,32.47
2022-11-30T21:56:33.779Z,28.00
2022-11-30T21:59:00.931Z,26.50
2022-11-30T22:01:30.444Z,26.93
2022-11-30T22:03:59.903Z,26.00
2022-11-30T22:06:29.087Z,28.20
2022-11-30T22:08:57.612Z,26.97
2022-11-30T22:11:24.444Z,25.83
2022-11-30T22:13:54.307Z,27.63
2022-11-30T22:16:23.203Z,25.37
2022-11-30T22:18:55.521Z,26.53
2022-11-30T22:21:25.211Z,28.60
2022-11-30T22:23:57.262Z,25.93
2022-11-30T22:26:26.754Z,27.43
2022-11-30T22:28:56.056Z,28.53
2022-11-30T22:31:26.126Z,25.43
2022-11-30T22:33:53.072Z,26.73
2022-11-30T22:36:28.504Z,27.37
2022-11-30T22:38:57.729Z,24.93
2022-11-30T22:41:25.615Z,27.90
2022-11-30T22:43:53.170Z,27.20
2022-11-30T22:46:23.399Z,25.70
2022-11-30T22:48:51.075Z,25.70
2022-11-30T22:51:23.393Z,27.20
2022-11-30T22:53:52.066Z,25.40
2022-11-30T22:56:33.140Z,25.83
2022-11-30T22:59:01.129Z,26.27
2022-11-30T23:01:29.365Z,28.30
2022-11-30T23:04:00.795Z,25.43
2022-11-30T23:06:27.607Z,24.50
2022-11-30T23:08:54.733Z,27.73
2022-11-30T23:11:24.156Z,26.80
2022-11-30T23:13:52.132Z,25.80
2022-11-30T23:16:20.652Z,25.63
2022-11-30T23:18:55.904Z,27.70
2022-11-30T23:21:41.311Z,26.80
2022-11-30T23:24:12.381Z,26.07
2022-11-30T23:26:39.860Z,25.23
2022-11-30T23:29:12.434Z,25.50
2022-11-30T23:31:41.045Z,30.20
2022-11-30T23:34:11.146Z,28.13
2022-11-30T23:36:38.300Z,24.70
2022-11-30T23:39:11.054Z,24.90
2022-11-30T23:41:38.538Z,23.10
2022-11-30T23:44:07.403Z,23.60
2022-11-30T23:46:34.945Z,23.57
2022-11-30T23:49:02.323Z,23.43
2022-11-30T23:51:29.392Z,24.07
2022-11-30T23:53:56.424Z,23.77
2022-11-30T23:56:25.093Z,24.80
2022-11-30T23:58:52.597Z,23.23
